createdAt,value
2018-05-04T00:01:48.432Z,88.31
2018-05-04T00:04:51.837Z,88.57
2018-05-04T00:07:55.237Z,88.87
2018-05-04T00:10:58.627Z,88.75
2018-05-04T00:14:02.033Z,88.25
2018-05-04T00:17:05.324Z,87.46
2018-05-04T00:20:08.830Z,86.95
2018-05-04T00:23:12.129Z,87.37
2018-05-04T00:26:15.436Z,88.10
2018-05-04T00:29:18.831Z,88.50
2018-05-04T00:32:22.229Z,88.71
2018-05-04T00:35:25.620Z,88.91
2018-05-04T00:38:29.026Z,89.08
2018-05-04T00:41:32.313Z,88.72
2018-05-04T00:44:35.632Z,87.59
2018-05-04T00:47:38.928Z,87.36
2018-05-04T00:50:42.331Z,87.56
2018-05-04T00:54:03.424Z,87.78
2018-05-04T00:57:06.828Z,88.26
2018-05-04T01:00:10.242Z,88.90
2018-05-04T01:03:13.541Z,88.98
2018-05-04T01:06:16.842Z,88.99
2018-05-04T01:09:20.237Z,89.22
2018-05-04T01:12:23.543Z,89.34
2018-05-04T01:15:26.923Z,89.43
2018-05-04T01:18:30.217Z,89.62
2018-05-04T01:21:33.627Z,89.95
2018-05-04T01:24:36.948Z,90.39
2018-05-04T01:27:40.245Z,90.68
2018-05-04T01:30:45.058Z,90.33
2018-05-04T01:33:48.457Z,89.46
2018-05-04T01:36:51.760Z,89.04
2018-05-04T01:39:55.060Z,89.10
2018-05-04T01:42:58.358Z,89.29
2018-05-04T01:46:01.670Z,89.61
2018-05-04T01:49:04.968Z,89.88
2018-05-04T01:52:08.285Z,89.96
2018-05-04T01:55:12.351Z,89.49
2018-05-04T01:58:15.752Z,88.83
2018-05-04T02:01:19.056Z,88.44
2018-05-04T02:04:22.451Z,88.21
2018-05-04T02:07:25.853Z,88.05
2018-05-04T02:10:29.149Z,88.11
2018-05-04T02:13:32.550Z,88.13
2018-05-04T02:16:35.956Z,88.22
2018-05-04T02:19:39.256Z,88.48
2018-05-04T02:22:42.558Z,88.70
2018-05-04T02:25:45.954Z,88.92
2018-05-04T02:28:49.339Z,89.12
2018-05-04T02:31:52.742Z,89.32
2018-05-04T02:34:56.149Z,89.53
2018-05-04T02:37:59.553Z,89.62
2018-05-04T02:41:02.945Z,89.51
2018-05-04T02:44:06.337Z,89.20
2018-05-04T02:47:09.747Z,89.28
2018-05-04T02:50:13.054Z,89.43
2018-05-04T02:53:16.365Z,89.65
2018-05-04T02:56:19.747Z,89.69
2018-05-04T02:59:23.063Z,89.75
2018-05-04T03:02:27.219Z,89.84
2018-05-04T03:05:30.536Z,89.85
2018-05-04T03:08:33.846Z,89.53
2018-05-04T03:11:37.158Z,89.41
2018-05-04T03:14:40.504Z,89.17
2018-05-04T03:17:44.669Z,89.10
2018-05-04T03:20:47.969Z,88.97
2018-05-04T03:23:51.379Z,89.01
2018-05-04T03:26:54.757Z,89.07
2018-05-04T03:29:58.076Z,89.11
2018-05-04T03:33:01.462Z,88.98
2018-05-04T03:36:04.780Z,88.86
2018-05-04T03:39:08.153Z,88.73
2018-05-04T03:42:12.254Z,88.71
2018-05-04T03:45:15.598Z,88.67
2018-05-04T03:48:19.663Z,88.64
2018-05-04T03:51:22.986Z,88.62
2018-05-04T03:54:26.381Z,88.83
2018-05-04T03:57:47.580Z,88.83
2018-05-04T04:01:08.851Z,88.91
2018-05-04T04:04:13.442Z,88.92
2018-05-04T04:07:16.740Z,89.16
2018-05-04T04:10:20.055Z,89.24
2018-05-04T04:13:23.436Z,89.17
2018-05-04T04:16:26.754Z,89.04
2018-05-04T04:19:30.052Z,88.90
2018-05-04T04:22:33.450Z,88.70
2018-05-04T04:25:36.760Z,88.58
2018-05-04T04:28:40.064Z,88.03
2018-05-04T04:31:43.437Z,87.06
2018-05-04T04:34:46.750Z,86.86
2018-05-04T04:37:50.066Z,86.86
2018-05-04T04:40:53.391Z,86.70
2018-05-04T04:43:56.717Z,85.73
2018-05-04T04:47:00.124Z,85.17
2018-05-04T04:50:03.428Z,84.57
2018-05-04T04:53:06.817Z,84.44
2018-05-04T04:56:10.232Z,84.57
2018-05-04T04:59:13.542Z,84.36
2018-05-04T05:02:18.419Z,84.18
2018-05-04T05:05:21.736Z,83.95
2018-05-04T05:08:25.060Z,83.68
2018-05-04T05:11:28.363Z,83.30
2018-05-04T05:14:31.659Z,83.01
2018-05-04T05:17:34.952Z,83.12
2018-05-04T05:20:38.258Z,83.23
2018-05-04T05:23:41.557Z,82.93
2018-05-04T05:26:44.868Z,82.72
2018-05-04T05:29:48.177Z,81.96
2018-05-04T05:32:52.241Z,81.14
2018-05-04T05:35:55.693Z,80.37
2018-05-04T05:38:59.756Z,79.84
2018-05-04T05:42:03.063Z,78.91
2018-05-04T05:45:06.434Z,78.04
2018-05-04T05:48:09.745Z,77.12
2018-05-04T05:51:13.158Z,76.08
2018-05-04T05:54:16.524Z,75.53
2018-05-04T05:57:19.840Z,75.31
2018-05-04T06:00:23.185Z,74.51
2018-05-04T06:03:27.275Z,74.41
2018-05-04T06:06:30.568Z,74.68
2018-05-04T06:09:33.872Z,74.20
2018-05-04T06:12:37.199Z,74.06
2018-05-04T06:15:40.528Z,72.71
2018-05-04T06:18:43.874Z,71.59
2018-05-04T06:21:47.258Z,71.22
2018-05-04T06:24:50.561Z,70.58
2018-05-04T06:27:53.960Z,70.21
2018-05-04T06:30:57.423Z,70.40
2018-05-04T06:34:00.720Z,71.73
2018-05-04T06:37:04.123Z,71.18
2018-05-04T06:40:07.486Z,70.32
2018-05-04T06:43:11.587Z,70.19
2018-05-04T06:46:14.897Z,69.56
2018-05-04T06:49:18.291Z,69.76
2018-05-04T06:52:21.616Z,68.69
2018-05-04T06:55:25.693Z,67.44
2018-05-04T06:58:29.047Z,67.97
2018-05-04T07:01:32.360Z,67.67
2018-05-04T07:04:35.691Z,68.45
2018-05-04T07:07:39.090Z,68.61
2018-05-04T07:10:42.489Z,69.10
2018-05-04T07:13:45.800Z,69.17
2018-05-04T07:16:49.139Z,70.20
2018-05-04T07:19:52.455Z,70.61
2018-05-04T07:22:55.798Z,70.92
2018-05-04T07:25:59.180Z,71.10
2018-05-04T07:29:02.577Z,70.96
2018-05-04T07:32:05.984Z,69.77
2018-05-04T07:35:09.398Z,68.73
2018-05-04T07:38:12.706Z,67.52
2018-05-04T07:41:16.012Z,67.06
2018-05-04T07:44:20.089Z,65.42
2018-05-04T07:47:23.490Z,63.89
2018-05-04T07:50:26.814Z,63.13
2018-05-04T07:53:30.145Z,63.53
2018-05-04T07:56:37.585Z,61.20
2018-05-04T07:59:40.918Z,61.15
2018-05-04T08:02:45.099Z,62.72
2018-05-04T08:05:48.497Z,61.02
2018-05-04T08:08:51.854Z,62.28
2018-05-04T08:11:55.161Z,61.65
2018-05-04T08:14:58.486Z,61.15
2018-05-04T08:18:01.820Z,61.63
2018-05-04T08:21:05.259Z,61.49
2018-05-04T08:24:08.573Z,60.70
2018-05-04T08:27:11.984Z,59.45
2018-05-04T08:30:15.295Z,58.86
2018-05-04T08:33:19.314Z,57.65
2018-05-04T08:36:22.761Z,55.94
2018-05-04T08:39:26.098Z,55.65
2018-05-04T08:42:29.514Z,53.92
2018-05-04T08:45:32.834Z,51.50
2018-05-04T08:48:36.199Z,48.39
2018-05-04T08:51:39.516Z,44.66
2018-05-04T08:54:42.817Z,48.84
2018-05-04T08:57:46.120Z,49.08
2018-05-04T09:00:49.489Z,47.65
2018-05-04T09:03:52.888Z,46.80
2018-05-04T09:06:56.289Z,47.61
2018-05-04T09:09:59.686Z,45.70
2018-05-04T09:13:03.097Z,44.95
2018-05-04T09:16:06.502Z,44.97
2018-05-04T09:19:09.922Z,45.40
2018-05-04T09:22:14.059Z,45.15
2018-05-04T09:25:17.472Z,44.00
2018-05-04T09:28:20.750Z,44.06
2018-05-04T09:31:24.840Z,43.49
2018-05-04T09:34:28.219Z,44.69
2018-05-04T09:37:31.683Z,45.04
2018-05-04T09:40:35.022Z,44.87
2018-05-04T09:43:38.447Z,43.80
2018-05-04T09:46:41.885Z,44.38
2018-05-04T09:49:45.222Z,45.45
2018-05-04T09:52:48.653Z,42.44
2018-05-04T09:55:52.108Z,44.68
2018-05-04T09:58:55.410Z,46.36
2018-05-04T10:01:58.882Z,44.94
2018-05-04T10:05:02.321Z,42.25
2018-05-04T10:08:05.725Z,43.94
2018-05-04T10:11:09.135Z,44.24
2018-05-04T10:14:12.447Z,43.92
2018-05-04T10:17:15.747Z,43.62
2018-05-04T10:20:19.116Z,43.56
2018-05-04T10:23:22.628Z,43.82
2018-05-04T10:26:26.034Z,42.36
2018-05-04T10:29:29.427Z,43.40
2018-05-04T10:32:32.756Z,43.95
2018-05-04T10:35:36.830Z,43.55
2018-05-04T10:38:40.273Z,41.42
2018-05-04T10:41:43.636Z,40.42
2018-05-04T10:44:46.943Z,40.44
2018-05-04T10:47:50.265Z,40.02
2018-05-04T10:50:53.609Z,39.59
2018-05-04T10:53:56.912Z,40.93
2018-05-04T10:57:00.220Z,40.29
2018-05-04T11:00:03.618Z,38.28
2018-05-04T11:03:06.969Z,37.79
2018-05-04T11:06:11.051Z,38.45
2018-05-04T11:09:14.399Z,38.60
2018-05-04T11:12:17.741Z,39.57
2018-05-04T11:15:21.068Z,38.37
2018-05-04T11:18:24.496Z,39.40
2018-05-04T11:21:27.869Z,38.85
2018-05-04T11:24:32.693Z,39.48
2018-05-04T11:27:36.041Z,39.67
2018-05-04T11:30:39.463Z,41.29
2018-05-04T11:33:42.769Z,41.42
2018-05-04T11:36:46.164Z,41.53
2018-05-04T11:39:49.582Z,41.29
2018-05-04T11:42:54.409Z,42.18
2018-05-04T11:45:57.722Z,38.84
2018-05-04T11:49:01.024Z,41.35
2018-05-04T11:52:04.440Z,41.36
2018-05-04T11:55:08.544Z,40.18
2018-05-04T11:58:11.848Z,39.02
2018-05-04T12:01:16.047Z,37.63
2018-05-04T12:04:19.454Z,37.17
2018-05-04T12:07:23.561Z,36.83
2018-05-04T12:10:26.960Z,37.35
2018-05-04T12:13:30.373Z,36.74
2018-05-04T12:16:33.738Z,38.34
2018-05-04T12:19:37.105Z,37.43
2018-05-04T12:22:40.419Z,36.42
2018-05-04T12:25:43.728Z,36.55
2018-05-04T12:28:47.051Z,37.69
2018-05-04T12:31:50.360Z,37.79
2018-05-04T12:34:55.330Z,37.93
2018-05-04T12:37:58.641Z,38.72
2018-05-04T12:41:01.956Z,37.28
2018-05-04T12:44:05.262Z,37.84
2018-05-04T12:47:08.592Z,37.83
2018-05-04T12:50:11.898Z,37.87
2018-05-04T12:53:15.215Z,37.58
2018-05-04T12:56:19.291Z,37.65
2018-05-04T12:59:22.600Z,35.88
2018-05-04T13:02:26.696Z,35.43
2018-05-04T13:05:30.094Z,36.54
2018-05-04T13:08:33.491Z,36.50
2018-05-04T13:11:36.804Z,37.48
2018-05-04T13:14:40.122Z,37.85
2018-05-04T13:17:44.213Z,37.07
2018-05-04T13:20:47.634Z,38.69
2018-05-04T13:23:51.720Z,38.19
2018-05-04T13:26:55.126Z,37.69
2018-05-04T13:29:58.528Z,38.50
2018-05-04T13:33:01.929Z,37.46
2018-05-04T13:36:05.317Z,37.18
2018-05-04T13:39:08.651Z,36.82
2018-05-04T13:42:12.020Z,37.36
2018-05-04T13:45:15.427Z,37.68
2018-05-04T13:48:18.761Z,36.26
2018-05-04T13:51:22.875Z,36.77
2018-05-04T13:54:26.183Z,35.33
2018-05-04T13:57:30.277Z,37.61
2018-05-04T14:00:33.654Z,37.89
2018-05-04T14:03:36.971Z,37.06
2018-05-04T14:06:40.296Z,36.28
2018-05-04T14:09:44.477Z,35.63
2018-05-04T14:12:47.999Z,34.21
2018-05-04T14:15:51.263Z,34.31
2018-05-04T14:18:54.578Z,34.80
2018-05-04T14:21:58.793Z,34.43
2018-05-04T14:25:02.122Z,33.64
2018-05-04T14:28:06.219Z,33.39
2018-05-04T14:31:09.635Z,31.87
2018-05-04T14:34:13.710Z,32.98
2018-05-04T14:37:17.108Z,33.47
2018-05-04T14:40:20.407Z,33.41
2018-05-04T14:43:23.818Z,33.41
2018-05-04T14:46:27.142Z,33.40
2018-05-04T14:49:31.258Z,33.38
2018-05-04T14:52:35.333Z,38.77
2018-05-04T14:55:38.652Z,39.98
2018-05-04T14:58:42.074Z,38.59
2018-05-04T15:01:45.424Z,40.07
2018-05-04T15:04:48.738Z,40.37
2018-05-04T15:07:52.141Z,42.17
2018-05-04T15:10:55.491Z,42.35
2018-05-04T15:13:58.825Z,43.75
2018-05-04T15:17:02.152Z,44.17
2018-05-04T15:20:06.229Z,44.59
2018-05-04T15:23:09.650Z,41.90
2018-05-04T15:26:12.970Z,38.72
2018-05-04T15:29:16.364Z,35.12
2018-05-04T15:32:19.701Z,34.17
2018-05-04T15:35:23.059Z,34.25
2018-05-04T15:38:26.369Z,34.01
2018-05-04T15:41:29.694Z,34.08
2018-05-04T15:44:33.013Z,33.74
2018-05-04T15:47:36.349Z,31.82
2018-05-04T15:50:45.229Z,30.89
2018-05-04T15:53:49.381Z,29.51
2018-05-04T15:56:52.697Z,28.75
2018-05-04T15:59:56.854Z,28.62
2018-05-04T16:03:00.298Z,28.97
2018-05-04T16:06:03.635Z,28.87
2018-05-04T16:09:06.934Z,28.87
2018-05-04T16:12:11.109Z,28.27
2018-05-04T16:15:14.434Z,26.52
2018-05-04T16:18:18.529Z,26.13
2018-05-04T16:21:21.848Z,27.01
2018-05-04T16:24:26.074Z,25.91
2018-05-04T16:27:30.167Z,26.62
2018-05-04T16:30:33.486Z,25.37
2018-05-04T16:33:36.828Z,25.58
2018-05-04T16:36:40.147Z,25.23
2018-05-04T16:39:43.448Z,25.06
2018-05-04T16:42:46.863Z,25.11
2018-05-04T16:45:50.257Z,25.07
2018-05-04T16:48:59.030Z,25.05
2018-05-04T16:52:03.202Z,25.64
2018-05-04T16:55:06.575Z,24.70
2018-05-04T16:58:09.948Z,24.51
2018-05-04T17:01:13.324Z,24.81
2018-05-04T17:04:17.684Z,25.73
2018-05-04T17:07:21.054Z,26.34
2018-05-04T17:10:25.307Z,26.12
2018-05-04T17:13:28.648Z,25.31
2018-05-04T17:16:31.995Z,24.53
2018-05-04T17:19:35.324Z,25.41
2018-05-04T17:22:38.647Z,26.33
2018-05-04T17:25:41.967Z,28.38
2018-05-04T17:28:46.069Z,32.06
2018-05-04T17:31:49.380Z,34.31
2018-05-04T17:34:53.461Z,37.59
2018-05-04T17:37:56.863Z,40.86
2018-05-04T17:41:00.193Z,43.27
2018-05-04T17:44:04.377Z,45.99
2018-05-04T17:47:07.779Z,47.06
2018-05-04T17:50:11.198Z,48.62
2018-05-04T17:53:15.326Z,49.82
2018-05-04T17:56:18.689Z,51.33
2018-05-04T17:59:21.993Z,52.26
2018-05-04T18:02:25.394Z,53.44
2018-05-04T18:05:28.801Z,53.82
2018-05-04T18:08:32.199Z,54.69
2018-05-04T18:11:35.594Z,55.44
2018-05-04T18:14:39.004Z,55.33
2018-05-04T18:17:43.115Z,55.51
2018-05-04T18:20:46.443Z,56.46
2018-05-04T18:23:50.537Z,56.87
2018-05-04T18:26:53.858Z,56.95
2018-05-04T18:29:57.952Z,57.63
2018-05-04T18:33:01.356Z,59.35
2018-05-04T18:36:04.629Z,59.54
2018-05-04T18:39:07.944Z,60.59
2018-05-04T18:42:11.287Z,61.34
2018-05-04T18:45:14.604Z,61.51
2018-05-04T18:48:18.138Z,62.27
2018-05-04T18:51:22.203Z,62.89
2018-05-04T18:54:25.558Z,63.38
2018-05-04T18:57:28.909Z,64.01
2018-05-04T19:00:32.228Z,64.78
2018-05-04T19:03:35.572Z,65.39
2018-05-04T19:06:38.890Z,65.52
2018-05-04T19:09:42.965Z,66.59
2018-05-04T19:12:46.278Z,67.16
2018-05-04T19:15:49.611Z,67.60
2018-05-04T19:18:52.956Z,68.13
2018-05-04T19:21:56.354Z,69.10
2018-05-04T19:24:59.657Z,69.70
2018-05-04T19:28:02.986Z,70.37
2018-05-04T19:31:06.359Z,70.62
2018-05-04T19:34:09.732Z,70.70
2018-05-04T19:37:13.057Z,70.99
2018-05-04T19:40:16.467Z,71.64
2018-05-04T19:43:19.853Z,72.43
2018-05-04T19:46:23.179Z,73.39
2018-05-04T19:49:27.253Z,74.17
2018-05-04T19:52:30.593Z,74.72
2018-05-04T19:55:34.692Z,75.15
2018-05-04T19:58:38.175Z,75.80
2018-05-04T20:01:41.502Z,75.90
2018-05-04T20:04:44.889Z,76.42
2018-05-04T20:07:48.293Z,76.83
2018-05-04T20:10:51.644Z,77.09
2018-05-04T20:13:55.004Z,77.17
2018-05-04T20:16:59.239Z,76.34
2018-05-04T20:20:03.330Z,75.36
2018-05-04T20:23:06.642Z,74.77
2018-05-04T20:26:10.737Z,74.26
2018-05-04T20:29:14.052Z,73.69
2018-05-04T20:32:17.427Z,73.57
2018-05-04T20:35:20.828Z,72.89
2018-05-04T20:38:24.229Z,72.47
2018-05-04T20:41:27.572Z,72.41
2018-05-04T20:44:30.892Z,72.29
2018-05-04T20:47:34.235Z,72.15
2018-05-04T20:50:37.578Z,71.44
2018-05-04T20:53:40.913Z,71.03
2018-05-04T20:56:44.235Z,70.57
2018-05-04T20:59:47.611Z,70.03
2018-05-04T21:02:51.651Z,70.04
2018-05-04T21:05:56.474Z,69.98
2018-05-04T21:08:59.789Z,70.22
2018-05-04T21:12:03.857Z,70.58
2018-05-04T21:15:07.158Z,70.77
2018-05-04T21:18:10.568Z,71.30
2018-05-04T21:21:13.896Z,71.95
2018-05-04T21:24:17.225Z,71.54
2018-05-04T21:27:20.583Z,72.49
2018-05-04T21:30:24.700Z,72.99
2018-05-04T21:33:28.014Z,73.87
2018-05-04T21:36:32.103Z,73.19
2018-05-04T21:39:35.440Z,73.42
2018-05-04T21:42:39.500Z,73.48
2018-05-04T21:45:42.811Z,74.10
2018-05-04T21:48:46.220Z,73.87
2018-05-04T21:51:50.369Z,73.17
2018-05-04T21:54:53.641Z,73.72
2018-05-04T21:57:57.739Z,74.18
2018-05-04T22:01:01.037Z,74.13
2018-05-04T22:04:04.333Z,74.04
2018-05-04T22:07:07.728Z,74.78
2018-05-04T22:10:11.051Z,75.59
2018-05-04T22:13:14.390Z,75.65
2018-05-04T22:16:17.712Z,74.82
2018-05-04T22:19:21.014Z,73.73
2018-05-04T22:22:24.346Z,74.13
2018-05-04T22:25:27.656Z,74.91
2018-05-04T22:28:31.875Z,77.28
2018-05-04T22:31:35.179Z,77.68
2018-05-04T22:34:39.271Z,77.53
2018-05-04T22:37:42.649Z,77.64
2018-05-04T22:40:46.078Z,77.77
2018-05-04T22:43:49.427Z,77.81
2018-05-04T22:46:52.746Z,78.03
2018-05-04T22:49:56.079Z,77.78
2018-05-04T22:52:59.466Z,78.23
2018-05-04T22:56:02.869Z,80.06
2018-05-04T22:59:06.274Z,80.79
2018-05-04T23:02:09.703Z,81.50
2018-05-04T23:05:13.022Z,81.35
2018-05-04T23:08:16.337Z,81.79
2018-05-04T23:11:19.978Z,82.09
2018-05-04T23:14:23.408Z,82.31
2018-05-04T23:17:26.808Z,81.12
2018-05-04T23:20:30.131Z,81.06
2018-05-04T23:23:33.440Z,81.22
2018-05-04T23:26:36.752Z,81.19
2018-05-04T23:29:40.070Z,81.71
2018-05-04T23:32:43.399Z,82.53
2018-05-04T23:35:46.712Z,81.37
2018-05-04T23:38:50.026Z,81.10
2018-05-04T23:41:53.346Z,81.31
2018-05-04T23:44:56.656Z,81.55
2018-05-04T23:47:59.972Z,82.16
2018-05-04T23:51:04.041Z,82.58
2018-05-04T23:54:07.365Z,82.91
2018-05-04T23:57:10.676Z,84.28
